createdAt,value
2022-12-07T00:02:22.240Z,3.53
2022-12-07T00:04:51.525Z,3.53
2022-12-07T00:07:24.890Z,3.50
2022-12-07T00:09:58.280Z,3.47
2022-12-07T00:12:27.040Z,3.43
2022-12-07T00:14:55.719Z,3.37
2022-12-07T00:17:25.467Z,3.35
2022-12-07T00:19:54.140Z,3.35
2022-12-07T00:22:22.792Z,3.37
2022-12-07T00:24:51.386Z,3.36
2022-12-07T00:27:21.405Z,3.36
2022-12-07T00:29:49.957Z,3.33
2022-12-07T00:32:19.491Z,3.29
2022-12-07T00:34:48.076Z,3.27
2022-12-07T00:37:16.659Z,3.22
2022-12-07T00:39:45.158Z,3.19
2022-12-07T00:42:13.826Z,3.07
2022-12-07T00:44:43.891Z,3.06
2022-12-07T00:47:12.634Z,3.10
2022-12-07T00:49:41.796Z,3.06
2022-12-07T00:52:10.466Z,3.09
2022-12-07T00:54:39.041Z,3.12
2022-12-07T00:57:07.518Z,3.15
2022-12-07T00:59:36.169Z,3.17
2022-12-07T01:02:06.378Z,3.18
2022-12-07T01:04:37.175Z,3.13
2022-12-07T01:07:05.790Z,3.15
2022-12-07T01:09:34.376Z,3.16
2022-12-07T01:12:04.267Z,3.20
2022-12-07T01:14:33.247Z,3.21
2022-12-07T01:17:02.042Z,3.16
2022-12-07T01:19:32.477Z,3.15
2022-12-07T01:22:01.021Z,3.18
2022-12-07T01:24:29.626Z,3.13
2022-12-07T01:26:59.177Z,3.15
2022-12-07T01:29:27.917Z,3.13
2022-12-07T01:31:57.795Z,3.12
2022-12-07T01:34:26.609Z,3.10
2022-12-07T01:36:56.768Z,3.08
2022-12-07T01:39:25.505Z,3.07
2022-12-07T01:41:54.128Z,3.03
2022-12-07T01:44:26.124Z,3.01
2022-12-07T01:46:57.007Z,2.98
2022-12-07T01:49:33.668Z,2.95
2022-12-07T01:52:16.629Z,2.94
2022-12-07T01:54:48.469Z,2.92
2022-12-07T01:57:18.926Z,2.90
2022-12-07T01:59:49.938Z,2.89
2022-12-07T02:02:26.304Z,2.83
2022-12-07T02:04:57.977Z,2.78
2022-12-07T02:07:29.784Z,2.78
2022-12-07T02:09:58.701Z,2.76
2022-12-07T02:12:28.942Z,2.73
2022-12-07T02:14:57.558Z,2.64
2022-12-07T02:17:34.509Z,2.62
2022-12-07T02:20:30.460Z,2.55
2022-12-07T02:23:33.278Z,2.62
2022-12-07T02:26:38.179Z,2.61
2022-12-07T02:29:19.347Z,2.68
2022-12-07T02:31:56.598Z,2.68
2022-12-07T02:34:34.969Z,2.62
2022-12-07T02:37:12.488Z,2.62
2022-12-07T02:39:46.684Z,2.57
2022-12-07T02:42:21.601Z,2.53
2022-12-07T02:44:55.641Z,2.52
2022-12-07T02:47:27.465Z,2.49
2022-12-07T02:49:56.237Z,2.47
2022-12-07T02:52:25.927Z,2.45
2022-12-07T02:54:54.437Z,2.47
2022-12-07T02:57:44.378Z,2.46
2022-12-07T03:00:18.740Z,2.44
2022-12-07T03:02:56.275Z,2.45
2022-12-07T03:05:52.057Z,2.49
2022-12-07T03:08:30.597Z,2.50
2022-12-07T03:11:02.017Z,2.52
2022-12-07T03:13:38.575Z,2.49
2022-12-07T03:16:14.707Z,2.47
2022-12-07T03:18:48.262Z,2.45
2022-12-07T03:21:19.449Z,2.45
2022-12-07T03:23:53.805Z,2.45
2022-12-07T03:26:27.265Z,2.46
2022-12-07T03:29:00.802Z,2.46
2022-12-07T03:31:34.388Z,2.47
2022-12-07T03:34:11.097Z,2.46
2022-12-07T03:36:46.568Z,2.48
2022-12-07T03:39:25.239Z,2.49
2022-12-07T03:41:54.828Z,2.48
2022-12-07T03:44:25.097Z,2.47
2022-12-07T03:47:04.639Z,2.48
2022-12-07T03:49:39.998Z,2.47
2022-12-07T03:52:15.909Z,2.42
2022-12-07T03:54:51.432Z,2.37
2022-12-07T03:57:24.178Z,2.29
2022-12-07T03:59:54.666Z,2.23
2022-12-07T04:02:26.316Z,2.18
2022-12-07T04:04:58.187Z,2.18
2022-12-07T04:07:26.807Z,2.17
2022-12-07T04:09:58.914Z,2.18
2022-12-07T04:12:27.558Z,2.20
2022-12-07T04:14:58.785Z,2.16
2022-12-07T04:17:29.858Z,2.13
2022-12-07T04:19:58.635Z,2.10
2022-12-07T04:22:27.307Z,2.07
2022-12-07T04:24:57.547Z,2.04
2022-12-07T04:27:26.575Z,2.01
2022-12-07T04:29:56.800Z,1.98
2022-12-07T04:32:26.267Z,1.95
2022-12-07T04:34:56.421Z,1.90
2022-12-07T04:37:25.302Z,1.84
2022-12-07T04:39:54.127Z,1.81
2022-12-07T04:42:22.758Z,1.75
2022-12-07T04:44:52.798Z,1.75
2022-12-07T04:47:21.762Z,1.76
2022-12-07T04:49:50.378Z,1.77
2022-12-07T04:52:20.481Z,1.81
2022-12-07T04:54:49.321Z,1.83
2022-12-07T04:57:18.919Z,1.88
2022-12-07T04:59:47.426Z,1.92
2022-12-07T05:02:17.088Z,1.93
2022-12-07T05:04:45.763Z,1.94
2022-12-07T05:07:14.298Z,1.98
2022-12-07T05:09:45.279Z,1.99
2022-12-07T05:12:13.876Z,2.01
2022-12-07T05:14:42.500Z,2.04
2022-12-07T05:17:18.107Z,2.09
2022-12-07T05:19:47.961Z,2.11
2022-12-07T05:22:17.163Z,2.12
2022-12-07T05:24:50.859Z,2.14
2022-12-07T05:27:20.497Z,2.15
2022-12-07T05:29:49.201Z,2.16
2022-12-07T05:32:17.707Z,2.17
2022-12-07T05:34:46.249Z,2.19
2022-12-07T05:37:14.867Z,2.17
2022-12-07T05:39:44.387Z,2.15
2022-12-07T05:42:18.456Z,2.13
2022-12-07T05:44:49.059Z,2.13
2022-12-07T05:47:18.523Z,2.11
2022-12-07T05:49:47.100Z,2.08
2022-12-07T05:52:17.796Z,2.05
2022-12-07T05:54:46.492Z,2.01
2022-12-07T05:57:16.726Z,2.00
2022-12-07T05:59:44.211Z,1.99
2022-12-07T06:02:16.531Z,1.94
2022-12-07T06:04:48.127Z,1.89
2022-12-07T06:07:18.907Z,1.81
2022-12-07T06:09:47.533Z,1.78
2022-12-07T06:12:35.473Z,1.81
2022-12-07T06:15:04.267Z,1.78
2022-12-07T06:17:34.203Z,1.73
2022-12-07T06:20:09.049Z,1.68
2022-12-07T06:22:37.615Z,1.70
2022-12-07T06:25:08.742Z,1.72
2022-12-07T06:27:39.136Z,1.67
2022-12-07T06:30:09.940Z,1.66
2022-12-07T06:32:40.127Z,1.64
2022-12-07T06:35:09.467Z,1.56
2022-12-07T06:37:38.025Z,1.56
2022-12-07T06:40:11.902Z,1.45
2022-12-07T06:42:42.196Z,1.47
2022-12-07T06:45:11.598Z,1.46
2022-12-07T06:47:41.059Z,1.42
2022-12-07T06:50:12.349Z,1.41
2022-12-07T06:52:40.941Z,1.36
2022-12-07T06:55:10.402Z,1.34
2022-12-07T06:57:41.547Z,1.39
2022-12-07T07:00:11.206Z,1.27
2022-12-07T07:02:39.757Z,1.25
2022-12-07T07:05:09.038Z,1.19
2022-12-07T07:07:58.202Z,1.20
2022-12-07T07:10:28.785Z,1.21
2022-12-07T07:12:59.184Z,1.20
2022-12-07T07:15:28.706Z,1.21
2022-12-07T07:21:36.019Z,1.22
2022-12-07T07:50:25.499Z,1.31
2022-12-07T07:53:30.899Z,1.26
2022-12-07T08:10:15.353Z,1.24
2022-12-07T08:12:59.158Z,1.24
2022-12-07T08:15:29.190Z,1.22
2022-12-07T08:18:01.940Z,1.25
2022-12-07T08:20:35.310Z,1.14
2022-12-07T08:34:00.287Z,1.01
2022-12-07T11:25:57.564Z,3.59
2022-12-07T11:28:43.203Z,3.66
2022-12-07T11:31:27.308Z,3.72
2022-12-07T11:34:06.176Z,3.88
2022-12-07T11:36:40.712Z,3.98
2022-12-07T11:39:22.283Z,4.17
2022-12-07T11:41:57.411Z,4.30
2022-12-07T11:44:34.701Z,4.34
2022-12-07T11:47:10.480Z,4.42
2022-12-07T11:49:49.598Z,4.39
2022-12-07T11:52:25.180Z,4.46
2022-12-07T11:54:57.028Z,4.48
2022-12-07T11:57:32.329Z,4.46
2022-12-07T12:00:16.935Z,4.58
2022-12-07T12:02:52.052Z,4.76
2022-12-07T12:05:24.451Z,4.80
2022-12-07T12:11:01.010Z,4.95
2022-12-07T12:17:38.936Z,5.27
2022-12-07T12:20:19.048Z,5.44
2022-12-07T12:22:53.519Z,5.50
2022-12-07T12:25:27.490Z,5.53
2022-12-07T12:28:00.745Z,5.64
2022-12-07T12:30:37.754Z,5.77
2022-12-07T12:33:16.225Z,5.88
2022-12-07T12:35:45.332Z,5.93
2022-12-07T12:38:34.658Z,5.96
2022-12-07T12:41:06.493Z,5.96
2022-12-07T12:43:53.899Z,6.02
2022-12-07T12:46:55.744Z,6.03
2022-12-07T12:49:45.808Z,6.08
2022-12-07T12:52:52.729Z,6.09
2022-12-07T12:55:37.935Z,6.13
2022-12-07T12:58:52.367Z,6.10
2022-12-07T13:01:49.615Z,6.14
2022-12-07T13:05:00.558Z,6.17
2022-12-07T13:08:02.332Z,6.05
2022-12-07T13:10:44.171Z,6.09
2022-12-07T13:13:43.568Z,6.08
2022-12-07T13:16:56.250Z,6.09
2022-12-07T13:20:04.439Z,6.01
2022-12-07T13:22:47.204Z,5.99
2022-12-07T13:26:40.010Z,6.04
2022-12-07T13:29:27.849Z,6.02
2022-12-07T13:32:00.076Z,5.92
2022-12-07T13:34:34.843Z,5.80
2022-12-07T13:37:13.818Z,5.75
2022-12-07T13:39:48.283Z,5.79
2022-12-07T13:42:27.729Z,5.75
2022-12-07T13:45:00.524Z,5.79
2022-12-07T13:47:38.918Z,5.81
2022-12-07T13:50:37.286Z,5.75
2022-12-07T13:53:20.095Z,5.73
2022-12-07T13:55:58.777Z,5.74
2022-12-07T13:58:38.710Z,5.72
2022-12-07T14:01:08.856Z,5.73
2022-12-07T14:03:39.769Z,5.70
2022-12-07T14:06:22.785Z,5.72
2022-12-07T14:09:10.864Z,5.71
2022-12-07T14:11:47.018Z,5.75
2022-12-07T14:14:22.987Z,5.78
2022-12-07T14:17:05.194Z,5.78
2022-12-07T14:19:52.833Z,5.80
2022-12-07T14:22:37.226Z,5.94
2022-12-07T14:25:22.653Z,5.84
2022-12-07T14:27:57.291Z,5.88
2022-12-07T14:30:31.300Z,6.20
2022-12-07T14:33:49.719Z,6.84
2022-12-07T14:36:18.760Z,7.69
2022-12-07T14:38:48.533Z,8.08
2022-12-07T14:41:38.837Z,7.72
2022-12-07T14:44:23.891Z,6.25
2022-12-07T14:49:56.705Z,5.46
2022-12-07T14:55:32.862Z,5.29
2022-12-07T14:58:06.505Z,5.27
2022-12-07T15:00:35.569Z,5.23
2022-12-07T15:03:06.763Z,5.21
2022-12-07T15:05:38.046Z,5.08
2022-12-07T15:08:07.587Z,5.00
2022-12-07T15:10:40.343Z,4.91
2022-12-07T15:13:29.810Z,4.83
2022-12-07T15:15:58.537Z,4.82
2022-12-07T15:18:29.047Z,4.82
2022-12-07T15:21:00.099Z,4.80
2022-12-07T15:23:28.910Z,4.78
2022-12-07T15:25:59.695Z,4.76
2022-12-07T15:28:30.419Z,4.77
2022-12-07T15:31:30.717Z,4.76
2022-12-07T15:33:55.350Z,4.73
2022-12-07T15:36:28.794Z,4.69
2022-12-07T15:39:14.004Z,4.67
2022-12-07T15:41:43.863Z,4.67
2022-12-07T15:44:32.661Z,4.63
2022-12-07T15:47:03.373Z,4.61
2022-12-07T15:50:59.877Z,4.46
2022-12-07T15:53:28.701Z,4.38
2022-12-07T15:55:57.842Z,4.29
2022-12-07T15:58:26.911Z,4.17
2022-12-07T16:00:55.728Z,4.05
2022-12-07T16:03:24.800Z,4.00
2022-12-07T16:05:55.770Z,4.00
2022-12-07T16:08:24.880Z,3.90
2022-12-07T16:10:53.768Z,3.86
2022-12-07T16:13:26.336Z,3.83
2022-12-07T16:15:56.852Z,3.79
2022-12-07T16:18:25.870Z,3.79
2022-12-07T16:20:56.199Z,3.77
2022-12-07T16:23:25.000Z,3.77
2022-12-07T16:25:54.305Z,3.78
2022-12-07T16:28:23.307Z,3.79
2022-12-07T16:31:03.431Z,3.75
2022-12-07T16:33:32.322Z,3.74
2022-12-07T16:36:06.389Z,3.73
2022-12-07T16:38:36.025Z,3.68
2022-12-07T16:41:08.852Z,3.68
2022-12-07T16:43:40.907Z,3.59
2022-12-07T16:46:10.020Z,3.58
2022-12-07T16:48:40.869Z,3.49
2022-12-07T16:52:19.249Z,3.46
2022-12-07T16:54:55.762Z,3.37
2022-12-07T16:57:26.072Z,3.30
2022-12-07T17:00:00.032Z,3.26
2022-12-07T17:02:29.396Z,3.25
2022-12-07T17:04:58.230Z,3.23
2022-12-07T17:07:28.607Z,3.24
2022-12-07T17:10:05.368Z,3.24
2022-12-07T17:12:34.207Z,3.26
2022-12-07T17:15:20.440Z,3.21
2022-12-07T17:17:54.070Z,3.16
2022-12-07T17:20:24.401Z,3.12
2022-12-07T17:22:56.181Z,3.05
2022-12-07T17:25:27.392Z,3.01
2022-12-07T17:27:57.328Z,2.94
2022-12-07T17:30:27.406Z,2.94
2022-12-07T17:32:56.552Z,2.88
2022-12-07T17:35:31.214Z,2.83
2022-12-07T17:38:01.491Z,2.79
2022-12-07T17:40:31.492Z,2.75
2022-12-07T17:43:00.751Z,2.73
2022-12-07T17:45:30.681Z,2.70
2022-12-07T17:47:59.605Z,2.67
2022-12-07T17:50:45.735Z,2.65
2022-12-07T17:53:44.224Z,2.59
2022-12-07T18:04:41.486Z,2.47
2022-12-07T18:07:20.351Z,2.42
2022-12-07T18:10:36.650Z,2.42
2022-12-07T18:17:38.735Z,2.49
2022-12-07T18:35:50.025Z,2.76
2022-12-07T18:38:25.965Z,2.77
2022-12-07T18:40:56.797Z,2.76
2022-12-07T18:43:26.499Z,2.78
2022-12-07T18:45:57.477Z,2.79
2022-12-07T18:48:26.377Z,2.80
2022-12-07T18:51:04.484Z,2.79
2022-12-07T18:53:33.919Z,2.83
2022-12-07T18:56:10.261Z,2.82
2022-12-07T18:59:00.685Z,2.77
2022-12-07T19:01:32.194Z,2.71
2022-12-07T19:04:07.320Z,2.71
2022-12-07T19:06:45.387Z,2.69
2022-12-07T19:09:15.537Z,2.69
2022-12-07T19:11:53.096Z,2.74
2022-12-07T19:14:26.164Z,2.74
2022-12-07T19:16:57.883Z,2.73
2022-12-07T19:19:31.871Z,2.72
2022-12-07T19:22:02.582Z,2.70
2022-12-07T19:24:31.989Z,2.71
2022-12-07T19:27:04.498Z,2.67
2022-12-07T19:29:33.407Z,2.68
2022-12-07T19:32:09.314Z,2.63
2022-12-07T19:34:42.414Z,2.64
2022-12-07T19:37:14.758Z,2.64
2022-12-07T19:39:48.857Z,2.65
2022-12-07T19:42:22.100Z,2.65
2022-12-07T19:48:07.957Z,2.54
2022-12-07T19:50:59.916Z,2.43
2022-12-07T19:53:38.390Z,2.35
2022-12-07T19:56:10.209Z,2.27
2022-12-07T20:01:38.422Z,2.17
2022-12-07T20:04:23.100Z,2.10
2022-12-07T20:07:11.060Z,2.09
2022-12-07T20:10:46.575Z,2.07
2022-12-07T20:13:58.973Z,2.04
2022-12-07T20:16:46.008Z,2.12
2022-12-07T20:19:38.527Z,2.17
2022-12-07T20:22:52.305Z,2.18
2022-12-07T20:25:53.178Z,2.20
2022-12-07T20:28:22.413Z,2.18
2022-12-07T20:31:00.729Z,2.20
2022-12-07T20:34:02.155Z,2.19
2022-12-07T20:36:37.113Z,2.23
2022-12-07T20:39:47.703Z,2.21
2022-12-07T20:42:52.385Z,2.19
2022-12-07T20:45:50.901Z,2.19
2022-12-07T20:48:23.870Z,2.22
2022-12-07T20:50:53.721Z,2.28
2022-12-07T20:53:23.998Z,2.27
2022-12-07T20:55:53.635Z,2.25
2022-12-07T20:58:28.660Z,2.27
2022-12-07T21:01:01.995Z,2.31
2022-12-07T21:03:31.759Z,2.37
2022-12-07T21:06:05.859Z,2.37
2022-12-07T21:08:37.511Z,2.37
2022-12-07T21:11:11.101Z,2.33
2022-12-07T21:13:43.360Z,2.35
2022-12-07T21:16:20.296Z,2.35
2022-12-07T21:18:50.739Z,2.34
2022-12-07T21:21:23.508Z,2.33
2022-12-07T21:24:01.742Z,2.35
2022-12-07T21:26:48.390Z,2.33
2022-12-07T21:29:40.808Z,2.30
2022-12-07T21:32:10.572Z,2.28
2022-12-07T21:34:39.456Z,2.27
2022-12-07T21:37:09.436Z,2.25
2022-12-07T21:39:38.654Z,2.23
2022-12-07T21:42:08.195Z,2.26
2022-12-07T21:44:39.569Z,2.27
2022-12-07T21:47:08.488Z,2.28
2022-12-07T21:49:38.235Z,2.29
2022-12-07T21:52:17.439Z,2.30
2022-12-07T21:54:50.023Z,2.30
2022-12-07T21:57:24.608Z,2.28
2022-12-07T21:59:56.873Z,2.23
2022-12-07T22:02:27.588Z,2.18
2022-12-07T22:04:57.445Z,2.14
2022-12-07T22:07:27.103Z,2.11
2022-12-07T22:09:55.758Z,2.08
2022-12-07T22:12:25.339Z,2.08
2022-12-07T22:15:10.829Z,2.10
2022-12-07T22:17:40.479Z,2.12
2022-12-07T22:20:10.227Z,2.11
2022-12-07T22:22:45.211Z,2.12
2022-12-07T22:25:15.845Z,2.11
2022-12-07T22:27:46.961Z,2.04
2022-12-07T22:30:17.350Z,2.01
2022-12-07T22:32:48.620Z,1.99
2022-12-07T22:35:19.631Z,1.97
2022-12-07T22:37:49.598Z,1.98
2022-12-07T22:40:19.157Z,1.96
2022-12-07T22:42:47.716Z,1.93
2022-12-07T22:45:24.457Z,1.92
2022-12-07T22:47:59.519Z,1.87
2022-12-07T22:50:34.455Z,1.88
2022-12-07T22:53:05.269Z,1.84
2022-12-07T22:55:34.230Z,1.78
2022-12-07T22:58:02.771Z,1.76
2022-12-07T23:00:32.847Z,1.75
2022-12-07T23:03:07.363Z,1.74
2022-12-07T23:05:36.130Z,1.74
2022-12-07T23:08:05.915Z,1.75
2022-12-07T23:10:35.491Z,1.74
2022-12-07T23:13:22.436Z,1.73
2022-12-07T23:15:58.763Z,1.66
2022-12-07T23:18:28.464Z,1.63
2022-12-07T23:20:58.907Z,1.56
2022-12-07T23:23:27.937Z,1.55
2022-12-07T23:26:02.917Z,1.50
2022-12-07T23:28:34.929Z,1.50
2022-12-07T23:31:08.520Z,1.48
2022-12-07T23:33:37.468Z,1.47
2022-12-07T23:36:11.023Z,1.44
2022-12-07T23:38:42.938Z,1.44
2022-12-07T23:41:14.831Z,1.46
2022-12-07T23:43:45.887Z,1.50
2022-12-07T23:46:18.679Z,1.55
2022-12-07T23:48:48.757Z,1.59
2022-12-07T23:51:18.318Z,1.62
2022-12-07T23:53:52.661Z,1.62
2022-12-07T23:56:24.009Z,1.64
2022-12-07T23:58:56.678Z,1.61
